CSU3 weather

St Hyacinthe Airport
St-Hyacinthe, Quebec, Canada

Public forecast

Using degrees Celsius for public forecast. Weather courtesy of forecast.io.

METAR (pilot weather report)

Closest report is MontrĂ©al / Saint-Hubert Airport, 17.7 nm (32.8 km) WSW. Retrieved 2019/07/21 23:00 UTC (11 minutes ago):

CYHU 212300Z AUTO 32015KT 9SM CLR 28/15 A2975 RMK SLP074 DENSITY ALT 1700FT

TAF (pilot weather forecast)

Closest forecast is MontrĂ©al / Saint-Hubert Airport, 17.7 nm (32.8 km) WSW. Retrieved 2019/07/21 18:48 UTC (4 hours ago):

TAF CYHU 211744Z 2118/2218 31012G22KT P6SM FEW050 SCT100 TEMPO 2118/2124 P6SM -SHRA BKN050 OVC100 FM220000 32008KT P6SM FEW030 SCT080 BECMG 2200/2202 VRB03KT FM220600 34006KT P6SM BKN060 FM221200 03008KT P6SM BKN050 OVC180 RMK FCST BASED ON AUTO OBS. NXT FCST BY 220000Z